createdAt,value
2023-05-18T00:00:02.533Z,1.80
2023-05-18T00:02:31.908Z,1.90
2023-05-18T00:05:02.385Z,1.70
2023-05-18T00:07:33.982Z,2.08
2023-05-18T00:10:01.632Z,1.70
2023-05-18T00:12:28.539Z,1.77
2023-05-18T00:14:57.715Z,2.10
2023-05-18T00:17:24.842Z,1.90
2023-05-18T00:19:51.731Z,1.60
2023-05-18T00:22:19.079Z,1.50
2023-05-18T00:24:48.805Z,1.60
2023-05-18T00:27:18.501Z,2.23
2023-05-18T00:29:45.621Z,1.90
2023-05-18T00:32:12.399Z,1.70
2023-05-18T00:34:39.161Z,1.70
2023-05-18T00:37:05.999Z,1.70
2023-05-18T00:39:32.742Z,2.00
2023-05-18T00:41:59.488Z,1.57
2023-05-18T00:44:26.254Z,1.87
2023-05-18T00:46:55.575Z,2.00
2023-05-18T00:49:22.397Z,1.73
2023-05-18T00:51:49.664Z,1.90
2023-05-18T00:54:17.356Z,1.80
2023-05-18T00:56:48.330Z,1.73
2023-05-18T00:59:15.903Z,1.83
2023-05-18T01:01:47.169Z,1.90
2023-05-18T01:04:14.590Z,1.53
2023-05-18T01:06:43.926Z,1.83
2023-05-18T01:09:14.534Z,1.67
2023-05-18T01:12:05.983Z,1.50
2023-05-18T01:14:45.661Z,1.80
2023-05-18T01:17:35.328Z,1.70
2023-05-18T01:20:07.349Z,1.80
2023-05-18T01:23:11.871Z,2.05
2023-05-18T01:25:50.706Z,1.70
2023-05-18T01:28:22.053Z,1.90
2023-05-18T01:30:49.465Z,1.90
2023-05-18T01:33:16.761Z,2.17
2023-05-18T01:35:48.975Z,2.10
2023-05-18T01:38:20.289Z,2.15
2023-05-18T01:41:05.641Z,2.07
2023-05-18T01:43:35.351Z,1.83
2023-05-18T01:46:13.187Z,1.93
2023-05-18T01:48:47.760Z,2.13
2023-05-18T01:51:17.509Z,2.00
2023-05-18T01:53:53.301Z,1.80
2023-05-18T01:56:23.335Z,1.97
2023-05-18T01:58:51.077Z,2.22
2023-05-18T02:01:20.251Z,1.80
2023-05-18T02:03:47.197Z,1.87
2023-05-18T02:06:16.506Z,2.13
2023-05-18T02:08:43.604Z,2.20
2023-05-18T02:11:10.602Z,2.30
2023-05-18T02:13:37.472Z,2.23
2023-05-18T02:16:04.567Z,1.80
2023-05-18T02:18:34.157Z,2.10
2023-05-18T02:21:04.336Z,2.10
2023-05-18T02:23:34.026Z,1.90
2023-05-18T02:26:06.798Z,2.23
2023-05-18T02:28:39.876Z,2.10
2023-05-18T02:31:14.244Z,2.03
2023-05-18T02:33:41.071Z,1.93
2023-05-18T02:36:08.740Z,2.10
2023-05-18T02:38:43.645Z,2.10
2023-05-18T02:41:13.926Z,1.90
2023-05-18T02:43:40.707Z,2.00
2023-05-18T02:46:07.579Z,2.10
2023-05-18T02:48:34.398Z,1.90
2023-05-18T02:51:01.121Z,2.27
2023-05-18T02:53:32.267Z,1.77
2023-05-18T02:55:59.212Z,2.10
2023-05-18T02:58:28.405Z,2.00
2023-05-18T03:00:55.582Z,2.00
2023-05-18T03:03:23.912Z,1.77
2023-05-18T03:05:53.845Z,1.93
2023-05-18T03:08:22.796Z,2.17
2023-05-18T03:10:50.290Z,2.00
2023-05-18T03:13:17.194Z,2.10
2023-05-18T03:15:45.587Z,1.90
2023-05-18T03:18:12.646Z,2.00
2023-05-18T03:20:39.475Z,2.23
2023-05-18T03:23:08.551Z,2.37
2023-05-18T03:25:37.875Z,2.07
2023-05-18T03:28:05.671Z,2.20
2023-05-18T03:30:35.663Z,2.10
2023-05-18T03:33:03.097Z,2.20
2023-05-18T03:35:34.581Z,2.30
2023-05-18T03:38:03.492Z,2.30
2023-05-18T03:40:33.069Z,2.00
2023-05-18T03:42:59.932Z,1.83
2023-05-18T03:45:26.741Z,1.80
2023-05-18T03:47:53.518Z,2.13
2023-05-18T03:50:22.558Z,1.83
2023-05-18T03:52:53.035Z,1.77
2023-05-18T03:55:21.776Z,2.27
2023-05-18T03:57:48.870Z,2.07
2023-05-18T04:00:18.571Z,1.87
2023-05-18T04:02:45.406Z,2.40
2023-05-18T04:05:15.305Z,1.80
2023-05-18T04:07:46.948Z,2.00
2023-05-18T04:10:14.534Z,1.90
2023-05-18T04:12:41.367Z,2.03
2023-05-18T04:15:14.370Z,2.03
2023-05-18T04:17:45.697Z,1.80
2023-05-18T04:20:14.485Z,2.23
2023-05-18T04:22:48.892Z,1.60
2023-05-18T04:25:16.383Z,2.30
2023-05-18T04:27:45.440Z,1.97
2023-05-18T04:30:13.642Z,1.90
2023-05-18T04:32:43.229Z,2.00
2023-05-18T04:35:11.508Z,2.37
2023-05-18T04:37:40.670Z,2.50
2023-05-18T04:40:14.316Z,2.10
2023-05-18T04:42:45.521Z,2.00
2023-05-18T04:45:17.249Z,2.10
2023-05-18T04:47:53.040Z,2.00
2023-05-18T04:50:20.788Z,2.20
2023-05-18T04:52:51.244Z,2.27
2023-05-18T04:55:28.238Z,2.07
2023-05-18T04:58:00.456Z,2.33
2023-05-18T05:00:31.672Z,2.10
2023-05-18T05:03:01.242Z,1.83
2023-05-18T05:05:30.278Z,2.30
2023-05-18T05:07:57.556Z,1.80
2023-05-18T05:10:28.504Z,2.20
2023-05-18T05:12:55.720Z,2.07
2023-05-18T05:15:22.409Z,2.20
2023-05-18T05:17:51.848Z,2.20
2023-05-18T05:20:21.268Z,2.33
2023-05-18T05:22:48.256Z,2.30
2023-05-18T05:25:17.800Z,2.33
2023-05-18T05:27:44.947Z,2.50
2023-05-18T05:30:12.213Z,2.77
2023-05-18T05:32:38.999Z,2.43
2023-05-18T05:35:06.282Z,2.43
2023-05-18T05:37:33.143Z,2.40
2023-05-18T05:40:02.142Z,2.97
2023-05-18T05:42:30.029Z,2.63
2023-05-18T05:44:56.770Z,2.70
2023-05-18T05:47:23.770Z,2.67
2023-05-18T05:49:53.393Z,2.20
2023-05-18T05:52:20.126Z,2.63
2023-05-18T05:54:51.531Z,2.40
2023-05-18T05:57:26.008Z,2.60
2023-05-18T05:59:52.694Z,2.67
2023-05-18T06:02:22.395Z,2.50
2023-05-18T06:04:49.207Z,2.33
2023-05-18T06:07:18.591Z,2.80
2023-05-18T06:09:48.037Z,2.50
2023-05-18T06:12:14.950Z,2.33
2023-05-18T06:14:41.734Z,2.60
2023-05-18T06:17:10.790Z,2.90
2023-05-18T06:19:37.718Z,2.73
2023-05-18T06:22:04.950Z,2.80
2023-05-18T06:24:32.093Z,2.97
2023-05-18T06:27:01.328Z,1.90
2023-05-18T06:29:30.696Z,2.40
2023-05-18T06:32:00.396Z,2.67
2023-05-18T06:34:29.581Z,2.90
2023-05-18T06:36:59.040Z,2.90
2023-05-18T06:39:26.216Z,2.37
2023-05-18T06:41:52.941Z,2.60
2023-05-18T06:44:22.291Z,2.30
2023-05-18T06:46:51.181Z,2.10
2023-05-18T06:49:17.962Z,2.30
2023-05-18T06:51:45.690Z,2.57
2023-05-18T06:54:13.649Z,2.20
2023-05-18T06:56:40.472Z,2.72
2023-05-18T06:59:09.454Z,2.30
2023-05-18T07:01:36.798Z,2.30
2023-05-18T07:04:06.179Z,2.07
2023-05-18T07:06:35.152Z,2.27
2023-05-18T07:09:08.036Z,2.50
2023-05-18T07:11:35.401Z,2.80
2023-05-18T07:14:02.559Z,2.17
2023-05-18T07:16:29.493Z,2.80
2023-05-18T07:18:59.816Z,2.17
2023-05-18T07:21:26.947Z,2.30
2023-05-18T07:23:53.770Z,2.37
2023-05-18T07:26:23.405Z,2.00
2023-05-18T07:28:51.540Z,2.50
2023-05-18T07:31:21.401Z,2.40
2023-05-18T07:33:48.618Z,2.10
2023-05-18T07:36:15.500Z,2.10
2023-05-18T07:38:42.342Z,2.50
2023-05-18T07:41:12.070Z,2.00
2023-05-18T07:43:39.400Z,1.97
2023-05-18T07:46:08.438Z,2.00
2023-05-18T07:48:36.727Z,2.20
2023-05-18T07:51:06.554Z,2.30
2023-05-18T07:53:36.015Z,2.10
2023-05-18T07:56:05.158Z,2.27
2023-05-18T07:58:34.607Z,2.00
2023-05-18T08:01:01.579Z,2.00
2023-05-18T08:03:31.379Z,2.13
2023-05-18T08:05:58.204Z,2.33
2023-05-18T08:08:24.981Z,2.00
2023-05-18T08:10:54.400Z,2.10
2023-05-18T08:13:23.695Z,2.30
2023-05-18T08:15:59.275Z,2.43
2023-05-18T08:18:32.353Z,2.38
2023-05-18T08:21:04.192Z,2.40
2023-05-18T08:23:31.444Z,1.97
2023-05-18T08:26:00.186Z,2.33
2023-05-18T08:28:27.326Z,2.33
2023-05-18T08:30:56.322Z,2.23
2023-05-18T08:33:26.285Z,2.97
2023-05-18T08:35:53.632Z,2.80
2023-05-18T08:38:20.979Z,3.13
2023-05-18T08:40:59.722Z,2.93
2023-05-18T08:43:33.310Z,2.57
2023-05-18T08:46:36.715Z,2.70
2023-05-18T08:49:05.713Z,2.70
2023-05-18T08:51:37.108Z,2.80
2023-05-18T08:54:09.765Z,2.40
2023-05-18T08:56:38.679Z,2.30
2023-05-18T08:59:08.405Z,2.67
2023-05-18T09:01:35.959Z,2.53
2023-05-18T09:04:05.806Z,2.73
2023-05-18T09:06:35.876Z,2.80
2023-05-18T09:09:06.630Z,2.70
2023-05-18T09:11:35.414Z,2.30
2023-05-18T09:14:02.674Z,2.47
2023-05-18T09:16:30.356Z,2.40
2023-05-18T09:18:57.697Z,2.23
2023-05-18T09:21:24.453Z,2.77
2023-05-18T09:23:54.733Z,2.37
2023-05-18T09:26:23.734Z,2.13
2023-05-18T09:28:54.197Z,2.03
2023-05-18T09:31:24.377Z,2.10
2023-05-18T09:33:54.185Z,1.90
2023-05-18T09:36:29.084Z,1.90
2023-05-18T09:38:55.997Z,2.53
2023-05-18T09:41:27.051Z,2.20
2023-05-18T09:43:57.624Z,2.33
2023-05-18T09:46:24.945Z,2.13
2023-05-18T09:48:54.193Z,2.17
2023-05-18T09:51:25.097Z,1.90
2023-05-18T09:53:56.424Z,1.90
2023-05-18T09:56:24.464Z,2.30
2023-05-18T09:58:51.443Z,2.03
2023-05-18T10:01:18.698Z,2.23
2023-05-18T10:03:48.291Z,2.17
2023-05-18T10:06:17.368Z,2.00
2023-05-18T10:08:45.487Z,2.10
2023-05-18T10:11:15.023Z,2.03
2023-05-18T10:13:44.737Z,1.73
2023-05-18T10:16:12.069Z,2.00
2023-05-18T10:18:39.511Z,2.20
2023-05-18T10:21:08.241Z,2.17
2023-05-18T10:23:36.388Z,2.10
2023-05-18T10:26:07.774Z,2.17
2023-05-18T10:28:43.329Z,2.20
2023-05-18T10:31:13.818Z,2.27
2023-05-18T10:33:43.787Z,2.20
2023-05-18T10:36:11.209Z,2.10
2023-05-18T10:38:45.112Z,1.80
2023-05-18T10:41:12.541Z,2.10
2023-05-18T10:43:42.101Z,2.10
2023-05-18T10:46:11.729Z,2.40
2023-05-18T10:48:40.759Z,2.70
2023-05-18T10:51:12.940Z,2.30
2023-05-18T10:53:43.935Z,2.00
2023-05-18T10:56:13.001Z,3.30
2023-05-18T10:58:43.118Z,2.30
2023-05-18T11:01:11.795Z,2.43
2023-05-18T11:03:42.109Z,2.67
2023-05-18T11:06:11.197Z,2.17
2023-05-18T11:08:47.919Z,2.30
2023-05-18T11:11:19.231Z,3.30
2023-05-18T11:13:53.682Z,2.72
2023-05-18T11:16:36.437Z,2.40
2023-05-18T11:19:09.302Z,2.57
2023-05-18T11:21:36.539Z,2.30
2023-05-18T11:24:19.651Z,2.47
2023-05-18T11:26:48.003Z,2.23
2023-05-18T11:29:18.719Z,2.27
2023-05-18T11:31:46.994Z,1.93
2023-05-18T11:34:39.624Z,2.70
2023-05-18T11:37:10.115Z,2.10
2023-05-18T11:39:51.825Z,2.10
2023-05-18T11:42:35.506Z,2.80
2023-05-18T11:45:12.939Z,2.87
2023-05-18T11:47:40.915Z,2.57
2023-05-18T11:50:10.361Z,2.30
2023-05-18T11:52:51.918Z,3.60
2023-05-18T11:55:20.065Z,3.10
2023-05-18T11:57:52.929Z,2.57
2023-05-18T12:00:26.579Z,3.07
2023-05-18T12:02:57.238Z,4.67
2023-05-18T12:05:24.642Z,5.95
2023-05-18T12:07:57.005Z,4.60
2023-05-18T12:10:24.228Z,4.13
2023-05-18T12:12:53.508Z,3.87
2023-05-18T12:15:25.005Z,3.88
2023-05-18T12:17:54.196Z,3.00
2023-05-18T12:20:29.622Z,2.70
2023-05-18T12:22:56.988Z,2.73
2023-05-18T12:25:28.143Z,3.00
2023-05-18T12:27:56.847Z,2.97
2023-05-18T12:30:25.983Z,2.70
2023-05-18T12:32:57.046Z,2.40
2023-05-18T12:35:30.184Z,2.40
2023-05-18T12:38:00.754Z,2.40
2023-05-18T12:40:34.480Z,2.60
2023-05-18T12:43:04.287Z,1.90
2023-05-18T12:45:32.979Z,2.20
2023-05-18T12:48:07.160Z,2.63
2023-05-18T12:50:34.940Z,2.10
2023-05-18T12:53:04.592Z,1.93
2023-05-18T12:55:33.344Z,2.23
2023-05-18T12:58:02.104Z,2.27
2023-05-18T13:00:36.061Z,2.60
2023-05-18T13:03:16.445Z,2.43
2023-05-18T13:06:02.887Z,2.23
2023-05-18T13:08:32.242Z,1.93
2023-05-18T13:11:13.607Z,2.57
2023-05-18T13:14:02.314Z,2.00
2023-05-18T13:16:30.355Z,2.40
2023-05-18T13:19:03.210Z,2.53
2023-05-18T13:21:30.633Z,2.03
2023-05-18T13:23:57.978Z,2.17
2023-05-18T13:26:27.895Z,2.42
2023-05-18T13:29:00.065Z,2.27
2023-05-18T13:31:29.568Z,2.40
2023-05-18T13:33:57.254Z,2.00
2023-05-18T13:36:26.328Z,1.93
2023-05-18T13:38:54.121Z,2.33
2023-05-18T13:41:23.108Z,2.30
2023-05-18T13:43:50.266Z,2.70
2023-05-18T13:46:20.030Z,2.20
2023-05-18T13:48:49.466Z,2.03
2023-05-18T13:51:16.669Z,1.90
2023-05-18T13:53:45.634Z,2.20
2023-05-18T13:56:12.624Z,2.37
2023-05-18T13:58:39.718Z,1.73
2023-05-18T14:01:10.149Z,2.08
2023-05-18T14:03:40.521Z,2.33
2023-05-18T14:06:10.169Z,2.40
2023-05-18T14:08:36.839Z,1.90
2023-05-18T14:11:03.633Z,1.90
2023-05-18T14:13:30.372Z,1.60
2023-05-18T14:15:57.190Z,2.07
2023-05-18T14:18:23.864Z,2.20
2023-05-18T14:20:50.605Z,2.43
2023-05-18T14:23:19.895Z,2.17
2023-05-18T14:25:47.090Z,2.50
2023-05-18T14:28:13.806Z,1.90
2023-05-18T14:30:40.654Z,2.13
2023-05-18T14:33:07.887Z,2.07
2023-05-18T14:35:34.713Z,2.13
2023-05-18T14:38:03.171Z,1.90
2023-05-18T14:40:30.486Z,2.17
2023-05-18T14:42:57.403Z,1.73
2023-05-18T14:45:27.016Z,2.20
2023-05-18T14:47:54.193Z,2.37
2023-05-18T14:50:21.429Z,2.03
2023-05-18T14:52:48.204Z,2.17
2023-05-18T14:55:17.467Z,1.97
2023-05-18T14:57:46.659Z,1.67
2023-05-18T15:00:14.225Z,10.77
2023-05-18T15:02:42.288Z,11.57
2023-05-18T15:05:11.647Z,16.50
2023-05-18T15:07:38.350Z,15.83
2023-05-18T15:10:05.796Z,5.10
2023-05-18T15:12:32.921Z,5.07
2023-05-18T15:15:02.216Z,10.37
2023-05-18T15:17:29.313Z,7.27
2023-05-18T15:19:56.381Z,5.90
2023-05-18T15:22:23.149Z,5.53
2023-05-18T15:24:52.446Z,4.70
2023-05-18T15:27:19.324Z,5.60
2023-05-18T15:29:47.903Z,18.80
2023-05-18T15:32:17.124Z,49.93
2023-05-18T15:34:46.083Z,24.30
2023-05-18T15:37:12.823Z,26.77
2023-05-18T15:39:39.540Z,20.37
2023-05-18T15:42:08.935Z,43.17
2023-05-18T15:44:35.770Z,33.08
2023-05-18T15:47:05.118Z,50.00
2023-05-18T15:49:31.811Z,43.00
2023-05-18T15:52:01.432Z,31.60
2023-05-18T15:54:28.172Z,21.03
2023-05-18T15:56:54.982Z,24.10
2023-05-18T15:59:22.123Z,33.03
2023-05-18T16:01:49.006Z,33.33
2023-05-18T16:04:16.257Z,43.70
2023-05-18T16:06:45.742Z,33.60
2023-05-18T16:09:12.523Z,37.37
2023-05-18T16:11:39.252Z,25.57
2023-05-18T16:14:08.974Z,22.13
2023-05-18T16:16:36.008Z,13.63
2023-05-18T16:19:07.546Z,12.67
2023-05-18T16:21:34.382Z,8.00
2023-05-18T16:24:01.165Z,6.30
2023-05-18T16:26:27.928Z,6.43
2023-05-18T16:28:59.989Z,4.93
2023-05-18T16:31:29.229Z,4.32
2023-05-18T16:33:56.272Z,3.97
2023-05-18T16:36:26.181Z,3.90
2023-05-18T16:38:53.700Z,3.93
2023-05-18T16:41:21.977Z,4.03
2023-05-18T16:43:48.978Z,3.30
2023-05-18T16:46:17.336Z,3.50
2023-05-18T16:48:44.516Z,2.90
2023-05-18T16:51:12.005Z,3.13
2023-05-18T16:53:38.688Z,4.17
2023-05-18T16:56:06.341Z,4.93
2023-05-18T16:58:33.143Z,5.17
2023-05-18T17:01:03.048Z,8.30
2023-05-18T17:03:34.362Z,6.40
2023-05-18T17:06:03.985Z,6.07
2023-05-18T17:08:30.688Z,5.93
2023-05-18T17:10:58.089Z,6.50
2023-05-18T17:13:25.345Z,6.20
2023-05-18T17:15:54.282Z,5.50
2023-05-18T17:18:21.396Z,4.63
2023-05-18T17:20:48.509Z,4.90
2023-05-18T17:23:18.802Z,5.20
2023-05-18T17:25:48.918Z,5.80
2023-05-18T17:28:18.782Z,5.20
2023-05-18T17:30:46.146Z,5.37
2023-05-18T17:33:15.600Z,4.80
2023-05-18T17:35:42.853Z,4.90
2023-05-18T17:38:09.952Z,4.88
2023-05-18T17:40:38.866Z,4.70
2023-05-18T17:43:08.514Z,4.57
2023-05-18T17:45:37.722Z,4.17
2023-05-18T17:48:07.772Z,4.03
2023-05-18T17:50:37.938Z,4.07
2023-05-18T17:53:05.100Z,3.90
2023-05-18T17:55:32.657Z,4.03
2023-05-18T17:58:02.350Z,3.63
2023-05-18T18:00:29.295Z,3.20
2023-05-18T18:02:56.726Z,3.77
2023-05-18T18:05:23.620Z,3.10
2023-05-18T18:07:50.851Z,3.53
2023-05-18T18:10:20.066Z,3.30
2023-05-18T18:12:46.754Z,3.10
2023-05-18T18:15:13.536Z,3.20
2023-05-18T18:17:40.463Z,2.70
2023-05-18T18:20:10.504Z,3.00
2023-05-18T18:22:39.774Z,2.70
2023-05-18T18:25:09.149Z,2.37
2023-05-18T18:27:38.013Z,2.27
2023-05-18T18:30:07.740Z,2.40
2023-05-18T18:32:34.953Z,2.42
2023-05-18T18:35:02.100Z,2.60
2023-05-18T18:37:28.912Z,2.57
2023-05-18T18:39:55.712Z,2.40
2023-05-18T18:42:25.311Z,2.90
2023-05-18T18:44:56.877Z,3.23
2023-05-18T18:47:26.237Z,2.83
2023-05-18T18:49:53.403Z,2.85
2023-05-18T18:52:20.558Z,2.50
2023-05-18T18:54:47.618Z,3.03
2023-05-18T18:57:14.687Z,2.73
2023-05-18T18:59:41.380Z,2.37
2023-05-18T19:02:12.563Z,2.97
2023-05-18T19:04:39.276Z,2.20
2023-05-18T19:07:06.114Z,2.20
2023-05-18T19:09:34.915Z,2.30
2023-05-18T19:12:02.055Z,2.20
2023-05-18T19:14:31.030Z,2.00
2023-05-18T19:17:00.218Z,2.33
2023-05-18T19:19:27.462Z,1.90
2023-05-18T19:21:56.490Z,2.17
2023-05-18T19:24:23.177Z,2.10
2023-05-18T19:26:50.724Z,1.87
2023-05-18T19:29:18.367Z,1.92
2023-05-18T19:31:47.467Z,1.80
2023-05-18T19:34:16.624Z,2.23
2023-05-18T19:36:43.832Z,1.70
2023-05-18T19:39:10.968Z,2.00
2023-05-18T19:41:40.148Z,1.80
2023-05-18T19:44:06.891Z,1.87
2023-05-18T19:46:37.003Z,2.40
2023-05-18T19:49:06.625Z,2.50
2023-05-18T19:51:33.917Z,2.67
2023-05-18T19:54:01.398Z,2.13
2023-05-18T19:56:28.303Z,2.93
2023-05-18T19:58:57.744Z,5.85
2023-05-18T20:01:24.921Z,5.10
2023-05-18T20:03:51.909Z,4.17
2023-05-18T20:06:23.580Z,4.07
2023-05-18T20:08:50.451Z,3.83
2023-05-18T20:11:19.022Z,3.93
2023-05-18T20:13:48.641Z,4.33
2023-05-18T20:16:15.405Z,3.90
2023-05-18T20:18:45.830Z,5.90
2023-05-18T20:21:12.719Z,3.43
2023-05-18T20:23:41.678Z,3.67
2023-05-18T20:26:08.893Z,3.30
2023-05-18T20:28:35.822Z,3.55
2023-05-18T20:31:02.644Z,3.20
2023-05-18T20:33:30.226Z,3.00
2023-05-18T20:36:00.738Z,2.83
2023-05-18T20:38:28.094Z,3.40
2023-05-18T20:40:59.452Z,3.13
2023-05-18T20:43:26.191Z,2.90
2023-05-18T20:45:53.005Z,3.20
2023-05-18T20:48:26.563Z,2.80
2023-05-18T20:50:55.720Z,2.40
2023-05-18T20:53:22.420Z,2.60
2023-05-18T20:55:54.242Z,2.47
2023-05-18T20:58:23.773Z,2.20
2023-05-18T21:00:55.495Z,2.40
2023-05-18T21:03:22.356Z,2.33
2023-05-18T21:05:54.203Z,2.40
2023-05-18T21:08:20.888Z,2.40
2023-05-18T21:10:49.841Z,2.50
2023-05-18T21:13:16.525Z,2.97
2023-05-18T21:15:45.573Z,3.40
2023-05-18T21:18:12.748Z,4.60
2023-05-18T21:20:42.896Z,4.18
2023-05-18T21:23:14.329Z,3.80
2023-05-18T21:25:41.585Z,3.37
2023-05-18T21:28:10.752Z,3.90
2023-05-18T21:30:42.345Z,3.38
2023-05-18T21:33:09.103Z,3.27
2023-05-18T21:35:35.898Z,2.57
2023-05-18T21:38:02.585Z,2.73
2023-05-18T21:40:31.703Z,3.00
2023-05-18T21:42:58.592Z,3.00
2023-05-18T21:45:25.491Z,2.80
2023-05-18T21:47:54.709Z,2.93
2023-05-18T21:50:21.864Z,2.60
2023-05-18T21:52:50.802Z,2.70
2023-05-18T21:55:17.846Z,2.40
2023-05-18T21:57:46.794Z,2.47
2023-05-18T22:00:14.152Z,2.70
2023-05-18T22:02:41.537Z,2.50
2023-05-18T22:05:09.730Z,2.50
2023-05-18T22:07:36.512Z,2.20
2023-05-18T22:10:04.881Z,2.30
2023-05-18T22:12:34.093Z,2.20
2023-05-18T22:15:00.954Z,2.10
2023-05-18T22:17:27.823Z,2.27
2023-05-18T22:19:55.700Z,2.40
2023-05-18T22:22:30.153Z,2.53
2023-05-18T22:24:59.964Z,2.00
2023-05-18T22:27:26.872Z,2.10
2023-05-18T22:30:01.085Z,2.00
2023-05-18T22:32:33.000Z,2.00
2023-05-18T22:35:03.353Z,2.23
2023-05-18T22:37:30.141Z,1.87
2023-05-18T22:39:56.898Z,2.30
2023-05-18T22:42:25.954Z,2.13
2023-05-18T22:44:52.648Z,2.00
2023-05-18T22:47:21.505Z,2.33
2023-05-18T22:49:49.145Z,1.80
2023-05-18T22:52:17.925Z,2.23
2023-05-18T22:54:44.680Z,1.80
2023-05-18T22:57:11.509Z,1.93
2023-05-18T22:59:42.946Z,1.90
2023-05-18T23:02:09.733Z,1.80
2023-05-18T23:04:36.628Z,2.20
2023-05-18T23:07:04.059Z,1.50
2023-05-18T23:09:31.046Z,1.50
2023-05-18T23:12:01.046Z,1.80
2023-05-18T23:14:31.177Z,2.00
2023-05-18T23:17:00.912Z,1.60
2023-05-18T23:19:28.390Z,1.90
2023-05-18T23:21:55.915Z,1.60
2023-05-18T23:24:22.673Z,2.00
2023-05-18T23:26:49.431Z,1.90
2023-05-18T23:29:16.810Z,1.83
2023-05-18T23:31:45.904Z,1.70
2023-05-18T23:34:12.939Z,1.60
2023-05-18T23:36:42.925Z,1.80
2023-05-18T23:39:12.651Z,1.70
2023-05-18T23:41:40.317Z,1.80
2023-05-18T23:44:07.458Z,1.98
2023-05-18T23:46:34.766Z,1.63
2023-05-18T23:49:01.832Z,1.80
2023-05-18T23:51:32.040Z,1.70
2023-05-18T23:53:59.700Z,1.70
2023-05-18T23:56:26.697Z,1.90
2023-05-18T23:58:56.608Z,1.67
